sensor_id;sensor_type;location;lat;lon;timestamp;P1;durP1;ratioP1;P2;durP2;ratioP2
3083;SDS011;1552;51.952;7.618;2023-03-01T00:00:36;12.50;;;7.17;;
3083;SDS011;1552;51.952;7.618;2023-03-01T00:03:03;10.97;;;6.57;;
3083;SDS011;1552;51.952;7.618;2023-03-01T00:05:30;10.50;;;6.20;;
3083;SDS011;1552;51.952;7.618;2023-03-01T00:07:57;9.53;;;6.27;;
3083;SDS011;1552;51.952;7.618;2023-03-01T00:10:23;10.50;;;6.70;;
3083;SDS011;1552;51.952;7.618;2023-03-01T00:12:50;9.13;;;6.33;;
3083;SDS011;1552;51.952;7.618;2023-03-01T00:15:17;12.80;;;6.50;;
3083;SDS011;1552;51.952;7.618;2023-03-01T00:17:43;15.10;;;6.87;;
3083;SDS011;1552;51.952;7.618;2023-03-01T00:20:10;10.43;;;6.30;;
3083;SDS011;1552;51.952;7.618;2023-03-01T00:22:37;12.37;;;7.40;;
3083;SDS011;1552;51.952;7.618;2023-03-01T00:25:04;10.83;;;6.90;;
3083;SDS011;1552;51.952;7.618;2023-03-01T00:27:30;9.30;;;6.63;;
3083;SDS011;1552;51.952;7.618;2023-03-01T00:29:56;10.00;;;6.50;;
3083;SDS011;1552;51.952;7.618;2023-03-01T00:32:23;13.93;;;7.20;;
3083;SDS011;1552;51.952;7.618;2023-03-01T00:34:49;9.60;;;7.10;;
3083;SDS011;1552;51.952;7.618;2023-03-01T00:37:21;12.47;;;6.63;;
3083;SDS011;1552;51.952;7.618;2023-03-01T00:39:49;10.30;;;6.67;;
3083;SDS011;1552;51.952;7.618;2023-03-01T00:42:15;11.50;;;6.87;;
3083;SDS011;1552;51.952;7.618;2023-03-01T00:44:42;13.10;;;6.73;;
3083;SDS011;1552;51.952;7.618;2023-03-01T00:47:08;10.70;;;6.63;;
3083;SDS011;1552;51.952;7.618;2023-03-01T00:49:35;9.53;;;7.10;;
3083;SDS011;1552;51.952;7.618;2023-03-01T00:52:01;10.07;;;6.57;;
3083;SDS011;1552;51.952;7.618;2023-03-01T00:54:27;9.97;;;6.53;;
3083;SDS011;1552;51.952;7.618;2023-03-01T00:56:55;12.80;;;7.17;;
3083;SDS011;1552;51.952;7.618;2023-03-01T00:59:21;8.57;;;6.47;;
3083;SDS011;1552;51.952;7.618;2023-03-01T01:01:48;13.13;;;7.30;;
3083;SDS011;1552;51.952;7.618;2023-03-01T01:04:14;11.70;;;6.60;;
3083;SDS011;1552;51.952;7.618;2023-03-01T01:06:41;9.40;;;5.40;;
3083;SDS011;1552;51.952;7.618;2023-03-01T01:09:08;11.87;;;6.73;;
3083;SDS011;1552;51.952;7.618;2023-03-01T01:11:42;12.83;;;6.53;;
3083;SDS011;1552;51.952;7.618;2023-03-01T01:14:10;11.37;;;7.03;;
3083;SDS011;1552;51.952;7.618;2023-03-01T01:16:36;9.77;;;6.57;;
3083;SDS011;1552;51.952;7.618;2023-03-01T01:19:02;9.97;;;6.80;;
3083;SDS011;1552;51.952;7.618;2023-03-01T01:21:29;10.90;;;6.97;;
3083;SDS011;1552;51.952;7.618;2023-03-01T01:23:55;13.60;;;7.70;;
3083;SDS011;1552;51.952;7.618;2023-03-01T01:26:23;11.07;;;6.27;;
3083;SDS011;1552;51.952;7.618;2023-03-01T01:28:49;9.43;;;6.30;;
3083;SDS011;1552;51.952;7.618;2023-03-01T01:31:17;10.63;;;7.07;;
3083;SDS011;1552;51.952;7.618;2023-03-01T01:33:44;12.20;;;6.70;;
3083;SDS011;1552;51.952;7.618;2023-03-01T01:36:11;10.27;;;6.43;;
3083;SDS011;1552;51.952;7.618;2023-03-01T01:38:38;11.23;;;6.90;;
3083;SDS011;1552;51.952;7.618;2023-03-01T01:41:05;12.33;;;6.97;;
3083;SDS011;1552;51.952;7.618;2023-03-01T01:43:33;10.93;;;6.70;;
3083;SDS011;1552;51.952;7.618;2023-03-01T01:46:00;10.73;;;6.93;;
3083;SDS011;1552;51.952;7.618;2023-03-01T01:48:31;10.53;;;6.70;;
3083;SDS011;1552;51.952;7.618;2023-03-01T01:51:05;10.17;;;6.50;;
3083;SDS011;1552;51.952;7.618;2023-03-01T01:53:33;10.07;;;6.43;;
3083;SDS011;1552;51.952;7.618;2023-03-01T01:56:00;9.93;;;6.60;;
3083;SDS011;1552;51.952;7.618;2023-03-01T01:58:27;12.50;;;6.93;;
3083;SDS011;1552;51.952;7.618;2023-03-01T02:00:55;12.43;;;7.63;;
3083;SDS011;1552;51.952;7.618;2023-03-01T02:03:23;10.27;;;6.07;;
3083;SDS011;1552;51.952;7.618;2023-03-01T02:05:52;12.10;;;6.83;;
3083;SDS011;1552;51.952;7.618;2023-03-01T02:08:20;10.10;;;6.37;;
3083;SDS011;1552;51.952;7.618;2023-03-01T02:10:47;9.90;;;6.60;;
3083;SDS011;1552;51.952;7.618;2023-03-01T02:13:14;11.37;;;7.53;;
3083;SDS011;1552;51.952;7.618;2023-03-01T02:15:40;9.60;;;6.57;;
3083;SDS011;1552;51.952;7.618;2023-03-01T02:18:08;11.07;;;6.50;;
3083;SDS011;1552;51.952;7.618;2023-03-01T02:20:38;10.73;;;7.27;;
3083;SDS011;1552;51.952;7.618;2023-03-01T02:23:08;12.70;;;6.77;;
3083;SDS011;1552;51.952;7.618;2023-03-01T02:25:37;12.70;;;7.20;;
3083;SDS011;1552;51.952;7.618;2023-03-01T02:28:08;13.10;;;7.40;;
3083;SDS011;1552;51.952;7.618;2023-03-01T02:30:38;12.57;;;6.77;;
3083;SDS011;1552;51.952;7.618;2023-03-01T02:33:25;12.20;;;6.70;;
3083;SDS011;1552;51.952;7.618;2023-03-01T02:35:50;11.53;;;7.07;;
3083;SDS011;1552;51.952;7.618;2023-03-01T02:38:18;10.97;;;6.60;;
3083;SDS011;1552;51.952;7.618;2023-03-01T02:40:45;11.50;;;7.23;;
3083;SDS011;1552;51.952;7.618;2023-03-01T02:43:11;13.70;;;7.07;;
3083;SDS011;1552;51.952;7.618;2023-03-01T02:45:42;13.07;;;7.37;;
3083;SDS011;1552;51.952;7.618;2023-03-01T02:48:09;10.10;;;6.83;;
3083;SDS011;1552;51.952;7.618;2023-03-01T02:50:42;11.43;;;6.97;;
3083;SDS011;1552;51.952;7.618;2023-03-01T02:53:11;13.40;;;6.80;;
3083;SDS011;1552;51.952;7.618;2023-03-01T02:55:39;12.30;;;7.20;;
3083;SDS011;1552;51.952;7.618;2023-03-01T02:58:06;11.33;;;6.80;;
3083;SDS011;1552;51.952;7.618;2023-03-01T03:00:33;10.53;;;7.13;;
3083;SDS011;1552;51.952;7.618;2023-03-01T03:03:01;10.53;;;6.90;;
3083;SDS011;1552;51.952;7.618;2023-03-01T03:05:28;8.87;;;7.03;;
3083;SDS011;1552;51.952;7.618;2023-03-01T03:07:55;10.97;;;7.40;;
3083;SDS011;1552;51.952;7.618;2023-03-01T03:10:22;8.90;;;6.87;;
3083;SDS011;1552;51.952;7.618;2023-03-01T03:12:49;10.27;;;6.60;;
3083;SDS011;1552;51.952;7.618;2023-03-01T03:15:16;12.43;;;7.67;;
3083;SDS011;1552;51.952;7.618;2023-03-01T03:17:43;10.70;;;7.43;;
3083;SDS011;1552;51.952;7.618;2023-03-01T03:20:11;10.93;;;6.87;;
3083;SDS011;1552;51.952;7.618;2023-03-01T03:22:38;10.30;;;6.50;;
3083;SDS011;1552;51.952;7.618;2023-03-01T03:25:05;11.90;;;7.17;;
3083;SDS011;1552;51.952;7.618;2023-03-01T03:27:35;14.57;;;7.53;;
3083;SDS011;1552;51.952;7.618;2023-03-01T03:30:01;10.37;;;6.57;;
3083;SDS011;1552;51.952;7.618;2023-03-01T03:32:28;11.43;;;6.90;;
3083;SDS011;1552;51.952;7.618;2023-03-01T03:34:55;11.77;;;7.10;;
3083;SDS011;1552;51.952;7.618;2023-03-01T03:37:23;9.07;;;6.77;;
3083;SDS011;1552;51.952;7.618;2023-03-01T03:40:08;10.07;;;6.93;;
3083;SDS011;1552;51.952;7.618;2023-03-01T03:42:40;10.60;;;6.77;;
3083;SDS011;1552;51.952;7.618;2023-03-01T03:45:06;12.20;;;6.83;;
3083;SDS011;1552;51.952;7.618;2023-03-01T03:47:33;11.53;;;7.03;;
3083;SDS011;1552;51.952;7.618;2023-03-01T03:49:59;9.57;;;6.80;;
3083;SDS011;1552;51.952;7.618;2023-03-01T03:52:27;11.23;;;7.20;;
3083;SDS011;1552;51.952;7.618;2023-03-01T03:54:53;12.07;;;7.13;;
3083;SDS011;1552;51.952;7.618;2023-03-01T03:57:19;11.70;;;6.37;;
3083;SDS011;1552;51.952;7.618;2023-03-01T03:59:46;11.00;;;7.13;;
3083;SDS011;1552;51.952;7.618;2023-03-01T04:02:12;12.43;;;7.10;;
3083;SDS011;1552;51.952;7.618;2023-03-01T04:04:47;10.10;;;7.17;;
3083;SDS011;1552;51.952;7.618;2023-03-01T04:07:14;10.47;;;6.60;;
3083;SDS011;1552;51.952;7.618;2023-03-01T04:09:42;10.80;;;6.80;;
3083;SDS011;1552;51.952;7.618;2023-03-01T04:12:08;11.03;;;6.97;;
3083;SDS011;1552;51.952;7.618;2023-03-01T04:14:35;11.50;;;7.37;;
3083;SDS011;1552;51.952;7.618;2023-03-01T04:17:01;13.37;;;7.20;;
3083;SDS011;1552;51.952;7.618;2023-03-01T04:19:30;13.27;;;7.13;;
3083;SDS011;1552;51.952;7.618;2023-03-01T04:22:01;12.10;;;7.20;;
3083;SDS011;1552;51.952;7.618;2023-03-01T04:24:32;10.33;;;7.63;;
3083;SDS011;1552;51.952;7.618;2023-03-01T04:27:00;12.23;;;6.63;;
3083;SDS011;1552;51.952;7.618;2023-03-01T04:29:26;10.70;;;6.90;;
3083;SDS011;1552;51.952;7.618;2023-03-01T04:31:52;11.40;;;7.33;;
3083;SDS011;1552;51.952;7.618;2023-03-01T04:34:18;9.87;;;7.17;;
3083;SDS011;1552;51.952;7.618;2023-03-01T04:36:45;11.30;;;7.17;;
3083;SDS011;1552;51.952;7.618;2023-03-01T04:39:11;12.40;;;7.47;;
3083;SDS011;1552;51.952;7.618;2023-03-01T04:41:38;11.57;;;7.00;;
3083;SDS011;1552;51.952;7.618;2023-03-01T04:44:06;11.07;;;7.13;;
3083;SDS011;1552;51.952;7.618;2023-03-01T04:46:34;15.53;;;7.27;;
3083;SDS011;1552;51.952;7.618;2023-03-01T04:49:00;11.40;;;6.50;;
3083;SDS011;1552;51.952;7.618;2023-03-01T04:51:27;10.63;;;6.87;;
3083;SDS011;1552;51.952;7.618;2023-03-01T04:53:53;9.90;;;7.10;;
3083;SDS011;1552;51.952;7.618;2023-03-01T04:56:20;12.50;;;7.00;;
3083;SDS011;1552;51.952;7.618;2023-03-01T04:58:47;12.37;;;7.33;;
3083;SDS011;1552;51.952;7.618;2023-03-01T05:01:16;10.53;;;7.40;;
3083;SDS011;1552;51.952;7.618;2023-03-01T05:03:44;13.40;;;7.67;;
3083;SDS011;1552;51.952;7.618;2023-03-01T05:06:10;12.80;;;7.80;;
3083;SDS011;1552;51.952;7.618;2023-03-01T05:08:37;13.83;;;7.90;;
3083;SDS011;1552;51.952;7.618;2023-03-01T05:11:03;12.13;;;7.27;;
3083;SDS011;1552;51.952;7.618;2023-03-01T05:13:30;12.00;;;7.67;;
3083;SDS011;1552;51.952;7.618;2023-03-01T05:15:57;13.47;;;7.80;;
3083;SDS011;1552;51.952;7.618;2023-03-01T05:18:26;11.03;;;7.50;;
3083;SDS011;1552;51.952;7.618;2023-03-01T05:20:53;15.40;;;7.80;;
3083;SDS011;1552;51.952;7.618;2023-03-01T05:23:21;15.77;;;7.87;;
3083;SDS011;1552;51.952;7.618;2023-03-01T05:25:47;12.67;;;7.57;;
3083;SDS011;1552;51.952;7.618;2023-03-01T05:28:14;10.90;;;6.60;;
3083;SDS011;1552;51.952;7.618;2023-03-01T05:30:40;12.27;;;7.17;;
3083;SDS011;1552;51.952;7.618;2023-03-01T05:33:07;11.43;;;7.03;;
3083;SDS011;1552;51.952;7.618;2023-03-01T05:35:39;15.37;;;7.57;;
3083;SDS011;1552;51.952;7.618;2023-03-01T05:38:06;11.47;;;6.50;;
3083;SDS011;1552;51.952;7.618;2023-03-01T05:40:32;14.77;;;7.70;;
3083;SDS011;1552;51.952;7.618;2023-03-01T05:42:59;10.63;;;7.20;;
3083;SDS011;1552;51.952;7.618;2023-03-01T05:45:26;15.60;;;7.40;;
3083;SDS011;1552;51.952;7.618;2023-03-01T05:47:52;10.97;;;7.93;;
3083;SDS011;1552;51.952;7.618;2023-03-01T05:50:20;11.93;;;7.70;;
3083;SDS011;1552;51.952;7.618;2023-03-01T05:52:48;16.77;;;8.50;;
3083;SDS011;1552;51.952;7.618;2023-03-01T05:55:15;13.27;;;7.57;;
3083;SDS011;1552;51.952;7.618;2023-03-01T05:57:42;15.73;;;8.13;;
3083;SDS011;1552;51.952;7.618;2023-03-01T06:00:09;12.93;;;7.77;;
3083;SDS011;1552;51.952;7.618;2023-03-01T06:02:35;12.97;;;8.43;;
3083;SDS011;1552;51.952;7.618;2023-03-01T06:05:03;13.30;;;7.73;;
3083;SDS011;1552;51.952;7.618;2023-03-01T06:07:29;10.17;;;7.17;;
3083;SDS011;1552;51.952;7.618;2023-03-01T06:09:57;12.63;;;8.07;;
3083;SDS011;1552;51.952;7.618;2023-03-01T06:12:23;12.83;;;7.93;;
3083;SDS011;1552;51.952;7.618;2023-03-01T06:14:49;13.50;;;8.30;;
3083;SDS011;1552;51.952;7.618;2023-03-01T06:17:15;12.63;;;7.90;;
3083;SDS011;1552;51.952;7.618;2023-03-01T06:19:42;12.67;;;8.10;;
3083;SDS011;1552;51.952;7.618;2023-03-01T06:22:08;18.37;;;9.47;;
3083;SDS011;1552;51.952;7.618;2023-03-01T06:24:34;14.63;;;8.70;;
3083;SDS011;1552;51.952;7.618;2023-03-01T06:27:02;11.70;;;7.40;;
3083;SDS011;1552;51.952;7.618;2023-03-01T06:29:29;13.67;;;7.47;;
3083;SDS011;1552;51.952;7.618;2023-03-01T06:31:55;12.97;;;8.20;;
3083;SDS011;1552;51.952;7.618;2023-03-01T06:34:21;12.57;;;8.60;;
3083;SDS011;1552;51.952;7.618;2023-03-01T06:36:48;12.17;;;7.07;;
3083;SDS011;1552;51.952;7.618;2023-03-01T06:39:14;12.33;;;7.83;;
3083;SDS011;1552;51.952;7.618;2023-03-01T06:41:42;11.50;;;6.90;;
3083;SDS011;1552;51.952;7.618;2023-03-01T06:44:10;13.43;;;8.10;;
3083;SDS011;1552;51.952;7.618;2023-03-01T06:46:36;13.80;;;9.17;;
3083;SDS011;1552;51.952;7.618;2023-03-01T06:49:02;14.93;;;7.77;;
3083;SDS011;1552;51.952;7.618;2023-03-01T06:51:29;11.03;;;6.93;;
3083;SDS011;1552;51.952;7.618;2023-03-01T06:53:56;14.10;;;7.97;;
3083;SDS011;1552;51.952;7.618;2023-03-01T06:56:22;14.53;;;8.13;;
3083;SDS011;1552;51.952;7.618;2023-03-01T06:58:48;22.17;;;12.97;;
3083;SDS011;1552;51.952;7.618;2023-03-01T07:01:16;19.67;;;10.60;;
3083;SDS011;1552;51.952;7.618;2023-03-01T07:03:42;13.10;;;8.27;;
3083;SDS011;1552;51.952;7.618;2023-03-01T07:06:09;13.57;;;8.07;;
3083;SDS011;1552;51.952;7.618;2023-03-01T07:08:35;16.07;;;8.43;;
3083;SDS011;1552;51.952;7.618;2023-03-01T07:11:02;14.77;;;8.47;;
3083;SDS011;1552;51.952;7.618;2023-03-01T07:13:29;12.33;;;8.03;;
3083;SDS011;1552;51.952;7.618;2023-03-01T07:15:55;14.07;;;8.33;;
3083;SDS011;1552;51.952;7.618;2023-03-01T07:18:23;16.50;;;8.00;;
3083;SDS011;1552;51.952;7.618;2023-03-01T07:20:49;13.30;;;7.70;;
3083;SDS011;1552;51.952;7.618;2023-03-01T07:23:15;12.90;;;7.60;;
3083;SDS011;1552;51.952;7.618;2023-03-01T07:25:42;12.03;;;7.17;;
3083;SDS011;1552;51.952;7.618;2023-03-01T07:28:08;16.10;;;8.23;;
3083;SDS011;1552;51.952;7.618;2023-03-01T07:30:34;16.83;;;7.33;;
3083;SDS011;1552;51.952;7.618;2023-03-01T07:33:01;13.17;;;7.33;;
3083;SDS011;1552;51.952;7.618;2023-03-01T07:35:29;13.43;;;6.93;;
3083;SDS011;1552;51.952;7.618;2023-03-01T07:37:55;10.80;;;7.53;;
3083;SDS011;1552;51.952;7.618;2023-03-01T07:40:22;13.33;;;7.57;;
3083;SDS011;1552;51.952;7.618;2023-03-01T07:42:48;14.93;;;7.80;;
3083;SDS011;1552;51.952;7.618;2023-03-01T07:45:15;15.70;;;7.43;;
3083;SDS011;1552;51.952;7.618;2023-03-01T07:47:41;10.67;;;7.17;;
3083;SDS011;1552;51.952;7.618;2023-03-01T07:50:08;10.50;;;7.20;;
3083;SDS011;1552;51.952;7.618;2023-03-01T07:52:36;12.63;;;7.17;;
3083;SDS011;1552;51.952;7.618;2023-03-01T07:55:02;10.43;;;6.20;;
3083;SDS011;1552;51.952;7.618;2023-03-01T07:57:29;12.60;;;7.33;;
3083;SDS011;1552;51.952;7.618;2023-03-01T07:59:56;13.90;;;7.17;;
3083;SDS011;1552;51.952;7.618;2023-03-01T08:02:22;13.33;;;7.17;;
3083;SDS011;1552;51.952;7.618;2023-03-01T08:04:49;10.73;;;6.30;;
3083;SDS011;1552;51.952;7.618;2023-03-01T08:07:15;14.03;;;7.77;;
3083;SDS011;1552;51.952;7.618;2023-03-01T08:09:43;16.73;;;7.53;;
3083;SDS011;1552;51.952;7.618;2023-03-01T08:12:09;14.40;;;7.47;;
3083;SDS011;1552;51.952;7.618;2023-03-01T08:14:35;13.03;;;6.90;;
3083;SDS011;1552;51.952;7.618;2023-03-01T08:17:01;12.03;;;7.50;;
3083;SDS011;1552;51.952;7.618;2023-03-01T08:19:29;15.73;;;7.40;;
3083;SDS011;1552;51.952;7.618;2023-03-01T08:21:55;16.07;;;7.50;;
3083;SDS011;1552;51.952;7.618;2023-03-01T08:24:23;14.50;;;7.33;;
3083;SDS011;1552;51.952;7.618;2023-03-01T08:26:50;16.93;;;7.33;;
3083;SDS011;1552;51.952;7.618;2023-03-01T08:29:17;15.33;;;7.53;;
3083;SDS011;1552;51.952;7.618;2023-03-01T08:31:43;15.17;;;8.53;;
3083;SDS011;1552;51.952;7.618;2023-03-01T08:34:11;15.23;;;7.00;;
3083;SDS011;1552;51.952;7.618;2023-03-01T08:36:38;13.63;;;7.37;;
3083;SDS011;1552;51.952;7.618;2023-03-01T08:39:05;12.27;;;7.17;;
3083;SDS011;1552;51.952;7.618;2023-03-01T08:41:31;10.53;;;6.97;;
3083;SDS011;1552;51.952;7.618;2023-03-01T08:43:59;13.60;;;7.47;;
3083;SDS011;1552;51.952;7.618;2023-03-01T08:46:26;13.67;;;7.37;;
3083;SDS011;1552;51.952;7.618;2023-03-01T08:48:52;11.27;;;7.17;;
3083;SDS011;1552;51.952;7.618;2023-03-01T08:51:19;13.93;;;7.60;;
3083;SDS011;1552;51.952;7.618;2023-03-01T08:53:45;11.90;;;7.67;;
3083;SDS011;1552;51.952;7.618;2023-03-01T08:56:12;15.83;;;7.43;;
3083;SDS011;1552;51.952;7.618;2023-03-01T08:58:39;14.10;;;7.20;;
3083;SDS011;1552;51.952;7.618;2023-03-01T09:01:10;15.20;;;7.20;;
3083;SDS011;1552;51.952;7.618;2023-03-01T09:03:36;21.27;;;8.67;;
3083;SDS011;1552;51.952;7.618;2023-03-01T09:06:04;12.63;;;7.93;;
3083;SDS011;1552;51.952;7.618;2023-03-01T09:08:31;14.47;;;7.53;;
3083;SDS011;1552;51.952;7.618;2023-03-01T09:10:57;15.63;;;7.73;;
3083;SDS011;1552;51.952;7.618;2023-03-01T09:13:23;18.13;;;8.20;;
3083;SDS011;1552;51.952;7.618;2023-03-01T09:15:50;14.77;;;8.33;;
3083;SDS011;1552;51.952;7.618;2023-03-01T09:18:18;13.17;;;8.03;;
3083;SDS011;1552;51.952;7.618;2023-03-01T09:20:45;17.23;;;8.40;;
3083;SDS011;1552;51.952;7.618;2023-03-01T09:23:11;18.53;;;7.73;;
3083;SDS011;1552;51.952;7.618;2023-03-01T09:25:37;18.00;;;7.90;;
3083;SDS011;1552;51.952;7.618;2023-03-01T09:28:04;11.20;;;7.20;;
3083;SDS011;1552;51.952;7.618;2023-03-01T09:30:30;14.00;;;7.97;;
3083;SDS011;1552;51.952;7.618;2023-03-01T09:32:56;15.53;;;8.73;;
3083;SDS011;1552;51.952;7.618;2023-03-01T09:35:24;11.57;;;6.80;;
3083;SDS011;1552;51.952;7.618;2023-03-01T09:37:50;14.87;;;7.63;;
3083;SDS011;1552;51.952;7.618;2023-03-01T09:40:18;13.00;;;7.67;;
3083;SDS011;1552;51.952;7.618;2023-03-01T09:42:46;13.80;;;7.30;;
3083;SDS011;1552;51.952;7.618;2023-03-01T09:45:16;14.53;;;7.73;;
3083;SDS011;1552;51.952;7.618;2023-03-01T09:47:45;12.13;;;7.33;;
3083;SDS011;1552;51.952;7.618;2023-03-01T09:50:12;15.53;;;7.70;;
3083;SDS011;1552;51.952;7.618;2023-03-01T09:52:41;14.73;;;7.23;;
3083;SDS011;1552;51.952;7.618;2023-03-01T09:55:09;11.73;;;6.93;;
3083;SDS011;1552;51.952;7.618;2023-03-01T09:57:38;13.73;;;7.80;;
3083;SDS011;1552;51.952;7.618;2023-03-01T10:00:11;12.10;;;7.43;;
3083;SDS011;1552;51.952;7.618;2023-03-01T10:02:41;12.73;;;7.40;;
3083;SDS011;1552;51.952;7.618;2023-03-01T10:05:13;13.80;;;7.60;;
3083;SDS011;1552;51.952;7.618;2023-03-01T10:07:43;10.03;;;6.97;;
3083;SDS011;1552;51.952;7.618;2023-03-01T10:10:23;15.63;;;7.70;;
3083;SDS011;1552;51.952;7.618;2023-03-01T10:12:51;17.03;;;7.60;;
3083;SDS011;1552;51.952;7.618;2023-03-01T10:15:19;11.77;;;6.97;;
3083;SDS011;1552;51.952;7.618;2023-03-01T10:17:47;16.03;;;7.03;;
3083;SDS011;1552;51.952;7.618;2023-03-01T10:20:17;14.33;;;7.40;;
3083;SDS011;1552;51.952;7.618;2023-03-01T10:22:45;15.53;;;8.10;;
3083;SDS011;1552;51.952;7.618;2023-03-01T10:25:15;14.67;;;7.63;;
3083;SDS011;1552;51.952;7.618;2023-03-01T10:27:44;11.47;;;6.97;;
3083;SDS011;1552;51.952;7.618;2023-03-01T10:30:13;15.67;;;7.93;;
3083;SDS011;1552;51.952;7.618;2023-03-01T10:32:41;12.67;;;7.50;;
3083;SDS011;1552;51.952;7.618;2023-03-01T10:35:15;12.30;;;7.17;;
3083;SDS011;1552;51.952;7.618;2023-03-01T10:37:47;13.33;;;7.93;;
3083;SDS011;1552;51.952;7.618;2023-03-01T10:40:22;13.23;;;7.73;;
3083;SDS011;1552;51.952;7.618;2023-03-01T10:42:49;14.17;;;7.97;;
3083;SDS011;1552;51.952;7.618;2023-03-01T10:45:16;14.57;;;7.67;;
3083;SDS011;1552;51.952;7.618;2023-03-01T10:47:43;13.57;;;7.43;;
3083;SDS011;1552;51.952;7.618;2023-03-01T10:50:17;15.00;;;8.30;;
3083;SDS011;1552;51.952;7.618;2023-03-01T10:52:55;14.10;;;8.50;;
3083;SDS011;1552;51.952;7.618;2023-03-01T10:55:24;11.93;;;7.50;;
3083;SDS011;1552;51.952;7.618;2023-03-01T10:57:55;16.37;;;8.80;;
3083;SDS011;1552;51.952;7.618;2023-03-01T11:00:32;16.93;;;8.83;;
3083;SDS011;1552;51.952;7.618;2023-03-01T11:03:02;16.97;;;9.13;;
3083;SDS011;1552;51.952;7.618;2023-03-01T11:05:29;16.53;;;8.63;;
3083;SDS011;1552;51.952;7.618;2023-03-01T11:07:59;12.50;;;8.00;;
3083;SDS011;1552;51.952;7.618;2023-03-01T11:10:28;14.30;;;8.30;;
3083;SDS011;1552;51.952;7.618;2023-03-01T11:13:05;19.37;;;9.37;;
3083;SDS011;1552;51.952;7.618;2023-03-01T11:15:31;14.27;;;8.73;;
3083;SDS011;1552;51.952;7.618;2023-03-01T11:17:58;13.67;;;8.07;;
3083;SDS011;1552;51.952;7.618;2023-03-01T11:20:29;19.07;;;8.73;;
3083;SDS011;1552;51.952;7.618;2023-03-01T11:22:56;16.97;;;8.30;;
3083;SDS011;1552;51.952;7.618;2023-03-01T11:25:24;17.57;;;9.97;;
3083;SDS011;1552;51.952;7.618;2023-03-01T11:27:53;13.97;;;7.90;;
3083;SDS011;1552;51.952;7.618;2023-03-01T11:30:20;16.07;;;8.20;;
3083;SDS011;1552;51.952;7.618;2023-03-01T11:32:51;13.37;;;8.77;;
3083;SDS011;1552;51.952;7.618;2023-03-01T11:35:22;11.70;;;7.77;;
3083;SDS011;1552;51.952;7.618;2023-03-01T11:37:53;12.23;;;8.00;;
3083;SDS011;1552;51.952;7.618;2023-03-01T11:40:23;13.17;;;7.83;;
3083;SDS011;1552;51.952;7.618;2023-03-01T11:42:54;14.23;;;8.13;;
3083;SDS011;1552;51.952;7.618;2023-03-01T11:45:23;16.30;;;8.00;;
3083;SDS011;1552;51.952;7.618;2023-03-01T11:47:59;14.70;;;8.40;;
3083;SDS011;1552;51.952;7.618;2023-03-01T11:50:30;11.73;;;7.07;;
3083;SDS011;1552;51.952;7.618;2023-03-01T11:53:08;13.17;;;7.80;;
3083;SDS011;1552;51.952;7.618;2023-03-01T11:55:46;12.80;;;7.40;;
3083;SDS011;1552;51.952;7.618;2023-03-01T11:58:23;13.27;;;7.27;;
3083;SDS011;1552;51.952;7.618;2023-03-01T12:00:57;16.60;;;9.23;;
3083;SDS011;1552;51.952;7.618;2023-03-01T12:03:34;12.23;;;7.73;;
3083;SDS011;1552;51.952;7.618;2023-03-01T12:06:25;11.17;;;7.30;;
3083;SDS011;1552;51.952;7.618;2023-03-01T12:08:56;11.83;;;7.13;;
3083;SDS011;1552;51.952;7.618;2023-03-01T12:11:27;10.53;;;7.07;;
3083;SDS011;1552;51.952;7.618;2023-03-01T12:14:02;14.23;;;8.00;;
3083;SDS011;1552;51.952;7.618;2023-03-01T12:16:33;16.97;;;7.90;;
3083;SDS011;1552;51.952;7.618;2023-03-01T12:21:59;12.40;;;7.83;;
3083;SDS011;1552;51.952;7.618;2023-03-01T12:24:42;13.30;;;6.60;;
3083;SDS011;1552;51.952;7.618;2023-03-01T12:27:16;14.93;;;7.33;;
3083;SDS011;1552;51.952;7.618;2023-03-01T12:29:49;10.17;;;6.17;;
3083;SDS011;1552;51.952;7.618;2023-03-01T12:32:22;13.90;;;7.50;;
3083;SDS011;1552;51.952;7.618;2023-03-01T12:37:47;9.57;;;6.27;;
3083;SDS011;1552;51.952;7.618;2023-03-01T12:40:22;15.03;;;6.07;;
3083;SDS011;1552;51.952;7.618;2023-03-01T12:42:53;10.63;;;6.07;;
3083;SDS011;1552;51.952;7.618;2023-03-01T12:48:16;11.10;;;6.03;;
3083;SDS011;1552;51.952;7.618;2023-03-01T12:50:47;12.30;;;6.33;;
3083;SDS011;1552;51.952;7.618;2023-03-01T12:53:19;14.97;;;7.23;;
3083;SDS011;1552;51.952;7.618;2023-03-01T12:55:45;9.23;;;6.20;;
3083;SDS011;1552;51.952;7.618;2023-03-01T12:58:15;9.97;;;6.43;;
3083;SDS011;1552;51.952;7.618;2023-03-01T13:00:49;10.37;;;6.23;;
3083;SDS011;1552;51.952;7.618;2023-03-01T13:03:24;9.93;;;5.80;;
3083;SDS011;1552;51.952;7.618;2023-03-01T13:05:56;9.10;;;6.27;;
3083;SDS011;1552;51.952;7.618;2023-03-01T13:08:29;9.93;;;6.00;;
3083;SDS011;1552;51.952;7.618;2023-03-01T13:11:00;8.23;;;5.50;;
3083;SDS011;1552;51.952;7.618;2023-03-01T13:13:27;8.80;;;5.57;;
3083;SDS011;1552;51.952;7.618;2023-03-01T13:15:54;10.07;;;5.60;;
3083;SDS011;1552;51.952;7.618;2023-03-01T13:18:32;8.13;;;5.43;;
3083;SDS011;1552;51.952;7.618;2023-03-01T13:21:02;7.50;;;5.57;;
3083;SDS011;1552;51.952;7.618;2023-03-01T13:23:30;10.40;;;5.87;;
3083;SDS011;1552;51.952;7.618;2023-03-01T13:28:48;11.67;;;6.13;;
3083;SDS011;1552;51.952;7.618;2023-03-01T13:34:02;11.20;;;6.00;;
3083;SDS011;1552;51.952;7.618;2023-03-01T13:39:29;13.07;;;5.43;;
3083;SDS011;1552;51.952;7.618;2023-03-01T13:41:57;9.20;;;5.00;;
3083;SDS011;1552;51.952;7.618;2023-03-01T13:44:25;11.70;;;5.63;;
3083;SDS011;1552;51.952;7.618;2023-03-01T13:46:53;9.40;;;5.63;;
3083;SDS011;1552;51.952;7.618;2023-03-01T13:49:22;11.33;;;6.13;;
3083;SDS011;1552;51.952;7.618;2023-03-01T13:51:50;12.23;;;5.77;;
3083;SDS011;1552;51.952;7.618;2023-03-01T13:54:19;8.73;;;6.00;;
3083;SDS011;1552;51.952;7.618;2023-03-01T13:56:50;8.30;;;5.83;;
3083;SDS011;1552;51.952;7.618;2023-03-01T13:59:19;9.93;;;5.97;;
3083;SDS011;1552;51.952;7.618;2023-03-01T14:01:51;10.53;;;5.83;;
3083;SDS011;1552;51.952;7.618;2023-03-01T14:04:19;7.80;;;5.60;;
3083;SDS011;1552;51.952;7.618;2023-03-01T14:06:47;8.30;;;5.80;;
3083;SDS011;1552;51.952;7.618;2023-03-01T14:09:16;10.50;;;5.80;;
3083;SDS011;1552;51.952;7.618;2023-03-01T14:11:51;10.47;;;5.53;;
3083;SDS011;1552;51.952;7.618;2023-03-01T14:14:30;10.13;;;5.30;;
3083;SDS011;1552;51.952;7.618;2023-03-01T14:16:59;8.27;;;5.83;;
3083;SDS011;1552;51.952;7.618;2023-03-01T14:19:29;9.20;;;6.00;;
3083;SDS011;1552;51.952;7.618;2023-03-01T14:22:02;12.33;;;6.20;;
3083;SDS011;1552;51.952;7.618;2023-03-01T14:24:29;10.23;;;6.03;;
3083;SDS011;1552;51.952;7.618;2023-03-01T14:26:57;12.33;;;5.47;;
3083;SDS011;1552;51.952;7.618;2023-03-01T14:29:25;9.53;;;6.07;;
3083;SDS011;1552;51.952;7.618;2023-03-01T14:31:51;7.93;;;5.20;;
3083;SDS011;1552;51.952;7.618;2023-03-01T14:34:19;9.70;;;6.17;;
3083;SDS011;1552;51.952;7.618;2023-03-01T14:36:45;9.13;;;5.50;;
3083;SDS011;1552;51.952;7.618;2023-03-01T14:39:17;12.53;;;5.70;;
3083;SDS011;1552;51.952;7.618;2023-03-01T14:41:43;8.63;;;5.83;;
3083;SDS011;1552;51.952;7.618;2023-03-01T14:44:12;7.87;;;5.37;;
3083;SDS011;1552;51.952;7.618;2023-03-01T14:46:40;10.43;;;6.13;;
3083;SDS011;1552;51.952;7.618;2023-03-01T14:49:10;7.97;;;4.93;;
3083;SDS011;1552;51.952;7.618;2023-03-01T14:51:37;10.10;;;5.40;;
3083;SDS011;1552;51.952;7.618;2023-03-01T14:54:04;9.50;;;5.37;;
3083;SDS011;1552;51.952;7.618;2023-03-01T14:56:44;9.70;;;5.00;;
3083;SDS011;1552;51.952;7.618;2023-03-01T14:59:10;12.13;;;5.77;;
3083;SDS011;1552;51.952;7.618;2023-03-01T15:01:37;7.47;;;5.30;;
3083;SDS011;1552;51.952;7.618;2023-03-01T15:04:03;9.10;;;5.90;;
3083;SDS011;1552;51.952;7.618;2023-03-01T15:06:31;8.77;;;5.47;;
3083;SDS011;1552;51.952;7.618;2023-03-01T15:08:57;10.20;;;5.83;;
3083;SDS011;1552;51.952;7.618;2023-03-01T15:11:24;8.73;;;6.00;;
3083;SDS011;1552;51.952;7.618;2023-03-01T15:13:54;10.97;;;5.47;;
3083;SDS011;1552;51.952;7.618;2023-03-01T15:16:21;11.00;;;5.70;;
3083;SDS011;1552;51.952;7.618;2023-03-01T15:18:49;9.60;;;5.30;;
3083;SDS011;1552;51.952;7.618;2023-03-01T15:21:16;8.40;;;4.83;;
3083;SDS011;1552;51.952;7.618;2023-03-01T15:23:47;9.00;;;5.03;;
3083;SDS011;1552;51.952;7.618;2023-03-01T15:26:21;8.23;;;4.47;;